createdAt,value
2018-03-11T00:00:51.538Z,98.08
2018-03-11T00:01:51.549Z,97.71
2018-03-11T00:02:51.510Z,97.80
2018-03-11T00:03:51.495Z,97.80
2018-03-11T00:04:51.485Z,97.99
2018-03-11T00:05:51.465Z,98.32
2018-03-11T00:06:51.479Z,98.08
2018-03-11T00:07:51.452Z,98.42
2018-03-11T00:08:51.423Z,98.61
2018-03-11T00:10:12.423Z,98.32
2018-03-11T00:10:51.395Z,98.32
2018-03-11T00:11:51.382Z,98.22
2018-03-11T00:12:51.368Z,98.03
2018-03-11T00:13:51.388Z,97.94
2018-03-11T00:14:51.354Z,98.42
2018-03-11T00:15:51.323Z,98.70
2018-03-11T00:16:51.401Z,98.99
2018-03-11T00:17:51.293Z,98.70
2018-03-11T00:18:51.296Z,98.90
2018-03-11T00:19:51.264Z,98.42
2018-03-11T00:20:51.245Z,98.61
2018-03-11T00:21:51.237Z,98.70
2018-03-11T00:22:51.232Z,99.08
2018-03-11T00:23:51.209Z,99.08
2018-03-11T00:24:51.206Z,99.27
2018-03-11T00:25:51.197Z,99.37
2018-03-11T00:26:51.159Z,99.18
2018-03-11T00:27:51.150Z,98.99
2018-03-11T00:28:51.135Z,99.56
2018-03-11T00:29:51.114Z,99.32
2018-03-11T00:30:51.107Z,99.70
2018-03-11T00:31:51.172Z,99.60
2018-03-11T00:32:51.075Z,99.60
2018-03-11T00:33:51.063Z,99.89
2018-03-11T00:34:51.045Z,99.60
2018-03-11T00:35:51.035Z,99.70
2018-03-11T00:36:51.015Z,99.89
2018-03-11T00:37:51.019Z,99.99
2018-03-11T00:38:51.000Z,99.99
2018-03-11T00:39:50.980Z,99.99
2018-03-11T00:40:50.960Z,99.99
2018-03-11T00:41:50.943Z,99.99
2018-03-11T00:42:50.948Z,99.99
2018-03-11T00:43:50.913Z,99.99
2018-03-11T00:44:50.896Z,99.99
2018-03-11T00:45:50.887Z,99.99
2018-03-11T00:46:50.903Z,99.99
2018-03-11T00:47:50.858Z,99.99
2018-03-11T00:48:50.839Z,99.99
2018-03-11T00:49:50.826Z,99.99
2018-03-11T00:50:50.815Z,99.99
2018-03-11T00:51:50.821Z,99.99
2018-03-11T00:52:50.787Z,99.99
2018-03-11T00:53:50.771Z,99.99
2018-03-11T00:54:50.770Z,99.99
2018-03-11T00:55:50.739Z,99.99
2018-03-11T00:56:50.730Z,99.99
2018-03-11T00:57:50.727Z,99.99
2018-03-11T00:58:50.698Z,99.99
2018-03-11T00:59:50.704Z,99.99
2018-03-11T01:00:50.662Z,99.99
2018-03-11T01:01:50.667Z,99.99
2018-03-11T01:02:50.640Z,99.99
2018-03-11T01:03:50.625Z,99.99
2018-03-11T01:04:50.628Z,99.99
2018-03-11T01:05:50.596Z,99.99
2018-03-11T01:06:50.581Z,99.99
2018-03-11T01:07:50.568Z,99.99
2018-03-11T01:08:50.570Z,99.99
2018-03-11T01:09:50.537Z,99.99
2018-03-11T01:10:50.540Z,99.99
2018-03-11T01:11:50.506Z,99.99
2018-03-11T01:12:50.496Z,99.99
2018-03-11T01:13:50.478Z,99.99
2018-03-11T01:14:50.462Z,99.99
2018-03-11T01:15:50.474Z,99.99
2018-03-11T01:16:50.429Z,99.99
2018-03-11T01:17:50.421Z,99.99
2018-03-11T01:18:50.430Z,99.99
2018-03-11T01:19:50.392Z,99.99
2018-03-11T01:20:50.368Z,99.99
2018-03-11T01:21:50.359Z,99.99
2018-03-11T01:22:50.345Z,99.99
2018-03-11T01:23:50.331Z,99.99
2018-03-11T01:24:50.334Z,99.99
2018-03-11T01:25:50.297Z,99.99
2018-03-11T01:26:50.316Z,99.99
2018-03-11T01:27:50.271Z,99.99
2018-03-11T01:28:50.259Z,99.99
2018-03-11T01:29:50.243Z,99.99
2018-03-11T01:30:50.292Z,99.99
2018-03-11T01:31:50.214Z,99.99
2018-03-11T01:32:50.218Z,99.99
2018-03-11T01:33:50.187Z,99.99
2018-03-11T01:34:50.167Z,99.99
2018-03-11T01:35:50.159Z,99.99
2018-03-11T01:36:50.136Z,99.99
2018-03-11T01:37:50.142Z,99.99
2018-03-11T01:38:50.113Z,99.99
2018-03-11T01:39:50.094Z,99.99
2018-03-11T01:40:50.093Z,99.99
2018-03-11T01:41:50.065Z,99.99
2018-03-11T01:42:50.081Z,99.99
2018-03-11T01:43:50.034Z,99.99
2018-03-11T01:44:50.019Z,99.99
2018-03-11T01:45:50.007Z,99.99
2018-03-11T01:46:49.990Z,99.99
2018-03-11T01:47:49.974Z,99.80
2018-03-11T01:48:49.992Z,99.89
2018-03-11T01:49:49.944Z,99.99
2018-03-11T01:50:49.929Z,99.99
2018-03-11T01:51:49.918Z,99.99
2018-03-11T01:52:49.913Z,99.99
2018-03-11T01:53:49.924Z,99.99
2018-03-11T01:54:49.869Z,99.99
2018-03-11T01:55:49.853Z,99.99
2018-03-11T01:56:49.840Z,99.99
2018-03-11T01:57:49.838Z,99.99
2018-03-11T01:58:49.810Z,99.99
2018-03-11T01:59:49.793Z,99.99
2018-03-11T02:00:49.778Z,99.89
2018-03-11T02:01:49.765Z,99.99
2018-03-11T02:02:49.768Z,99.99
2018-03-11T02:03:49.734Z,99.99
2018-03-11T02:04:49.743Z,99.99
2018-03-11T02:05:49.696Z,99.99
2018-03-11T02:06:49.704Z,99.99
2018-03-11T02:07:49.699Z,99.99
2018-03-11T02:08:49.672Z,99.99
2018-03-11T02:09:49.639Z,99.99
2018-03-11T02:10:49.624Z,99.99
2018-03-11T02:11:49.624Z,99.99
2018-03-11T02:12:49.604Z,99.99
2018-03-11T02:13:49.581Z,99.99
2018-03-11T02:14:49.607Z,99.99
2018-03-11T02:15:49.560Z,99.99
2018-03-11T02:16:49.537Z,99.99
2018-03-11T02:17:49.529Z,99.99
2018-03-11T02:18:49.521Z,99.99
2018-03-11T02:19:49.488Z,99.99
2018-03-11T02:20:49.476Z,99.99
2018-03-11T02:21:49.460Z,99.99
2018-03-11T02:22:49.446Z,99.99
2018-03-11T02:23:49.443Z,99.99
2018-03-11T02:24:49.517Z,99.99
2018-03-11T02:25:49.402Z,99.99
2018-03-11T02:26:49.411Z,99.99
2018-03-11T02:27:49.370Z,99.99
2018-03-11T02:28:49.362Z,99.99
2018-03-11T02:29:49.346Z,99.99
2018-03-11T02:30:49.329Z,99.99
2018-03-11T02:31:49.313Z,99.99
2018-03-11T02:32:49.315Z,99.99
2018-03-11T02:33:49.277Z,99.99
2018-03-11T02:34:49.263Z,99.99
2018-03-11T02:35:49.264Z,99.99
2018-03-11T02:36:49.235Z,99.99
2018-03-11T02:37:49.217Z,99.99
2018-03-11T02:38:49.206Z,99.99
2018-03-11T02:39:49.192Z,99.99
2018-03-11T02:40:49.176Z,99.99
2018-03-11T02:41:49.178Z,99.99
2018-03-11T02:42:49.145Z,99.99
2018-03-11T02:43:49.126Z,99.99
2018-03-11T02:44:49.119Z,99.99
2018-03-11T02:45:49.102Z,99.99
2018-03-11T02:46:49.092Z,99.99
2018-03-11T02:47:49.088Z,99.99
2018-03-11T02:48:49.056Z,99.99
2018-03-11T02:49:49.043Z,99.99
2018-03-11T02:50:49.049Z,99.99
2018-03-11T02:51:49.020Z,99.99
2018-03-11T02:52:48.994Z,99.99
2018-03-11T02:53:48.980Z,99.99
2018-03-11T02:54:48.968Z,99.99
2018-03-11T02:55:48.947Z,99.99
2018-03-11T02:56:48.954Z,99.99
2018-03-11T02:57:48.921Z,99.99
2018-03-11T02:58:48.908Z,99.99
2018-03-11T02:59:48.910Z,99.99
2018-03-11T03:00:48.878Z,99.99
2018-03-11T03:01:48.863Z,99.99
2018-03-11T03:02:48.863Z,99.99
2018-03-11T03:03:48.832Z,99.99
2018-03-11T03:04:48.829Z,99.99
2018-03-11T03:05:48.844Z,99.99
2018-03-11T03:06:48.787Z,99.99
2018-03-11T03:07:48.773Z,99.99
2018-03-11T03:08:48.770Z,99.99
2018-03-11T03:09:48.740Z,99.99
2018-03-11T03:10:48.749Z,99.99
2018-03-11T03:11:48.714Z,99.99
2018-03-11T03:12:48.702Z,99.99
2018-03-11T03:13:48.700Z,99.99
2018-03-11T03:14:48.663Z,99.99
2018-03-11T03:15:48.647Z,99.99
2018-03-11T03:16:48.648Z,99.99
2018-03-11T03:17:48.622Z,99.99
2018-03-11T03:18:48.620Z,99.99
2018-03-11T03:19:48.607Z,99.99
2018-03-11T03:20:48.574Z,99.99
2018-03-11T03:21:48.559Z,99.99
2018-03-11T03:22:48.544Z,99.99
2018-03-11T03:23:48.529Z,99.99
2018-03-11T03:24:48.518Z,99.99
2018-03-11T03:25:48.513Z,99.99
2018-03-11T03:26:48.484Z,99.99
2018-03-11T03:27:48.474Z,99.99
2018-03-11T03:28:48.454Z,99.99
2018-03-11T03:29:48.442Z,99.99
2018-03-11T03:30:48.515Z,99.99
2018-03-11T03:31:48.410Z,99.99
2018-03-11T03:32:48.393Z,99.99
2018-03-11T03:33:48.380Z,99.99
2018-03-11T03:34:48.378Z,99.99
2018-03-11T03:35:48.364Z,99.99
2018-03-11T03:36:48.348Z,99.99
2018-03-11T03:37:48.317Z,99.99
2018-03-11T03:38:48.308Z,99.99
2018-03-11T03:39:48.292Z,99.99
2018-03-11T03:40:48.287Z,99.99
2018-03-11T03:41:48.258Z,99.99
2018-03-11T03:42:48.238Z,99.99
2018-03-11T03:43:48.227Z,99.99
2018-03-11T03:44:48.211Z,99.99
2018-03-11T03:45:48.217Z,99.99
2018-03-11T03:46:48.182Z,99.99
2018-03-11T03:47:48.168Z,99.99
2018-03-11T03:48:48.146Z,99.99
2018-03-11T03:49:48.136Z,99.99
2018-03-11T03:50:48.124Z,99.99
2018-03-11T03:51:48.121Z,99.99
2018-03-11T03:52:48.091Z,99.99
2018-03-11T03:53:48.075Z,99.99
2018-03-11T03:54:48.060Z,99.99
2018-03-11T03:55:48.044Z,99.99
2018-03-11T03:56:48.042Z,99.99
2018-03-11T03:57:48.013Z,99.99
2018-03-11T03:58:47.997Z,99.99
2018-03-11T03:59:47.985Z,99.99
2018-03-11T04:00:47.961Z,99.99
2018-03-11T04:01:47.953Z,99.99
2018-03-11T04:02:47.952Z,99.99
2018-03-11T04:03:47.925Z,99.99
2018-03-11T04:04:47.906Z,99.99
2018-03-11T04:05:47.890Z,99.99
2018-03-11T04:06:47.891Z,99.99
2018-03-11T04:07:47.862Z,99.99
2018-03-11T04:08:47.848Z,99.99
2018-03-11T04:09:47.848Z,99.99
2018-03-11T04:10:47.815Z,99.99
2018-03-11T04:11:47.806Z,99.99
2018-03-11T04:12:47.787Z,99.99
2018-03-11T04:13:47.770Z,99.99
2018-03-11T04:14:47.768Z,99.99
2018-03-11T04:15:47.761Z,99.99
2018-03-11T04:16:47.725Z,99.99
2018-03-11T04:17:47.708Z,99.99
2018-03-11T04:18:47.692Z,99.99
2018-03-11T04:19:47.678Z,99.99
2018-03-11T04:20:47.678Z,99.99
2018-03-11T04:21:47.648Z,99.99
2018-03-11T04:22:47.634Z,99.99
2018-03-11T04:23:47.618Z,99.99
2018-03-11T04:24:47.605Z,99.99
2018-03-11T04:25:47.589Z,99.99
2018-03-11T04:26:47.586Z,99.99
2018-03-11T04:27:47.576Z,99.99
2018-03-11T04:28:47.556Z,99.99
2018-03-11T04:29:47.528Z,99.99
2018-03-11T04:30:47.512Z,99.99
2018-03-11T04:31:47.498Z,99.99
2018-03-11T04:32:47.482Z,99.99
2018-03-11T04:33:47.498Z,99.99
2018-03-11T04:34:47.455Z,99.99
2018-03-11T04:35:47.434Z,99.99
2018-03-11T04:36:47.427Z,99.99
2018-03-11T04:37:47.406Z,99.99
2018-03-11T04:38:47.392Z,99.99
2018-03-11T04:39:47.390Z,99.99
2018-03-11T04:40:47.374Z,99.99
2018-03-11T04:41:47.344Z,99.99
2018-03-11T04:42:47.331Z,99.99
2018-03-11T04:43:47.329Z,99.99
2018-03-11T04:44:47.298Z,99.99
2018-03-11T04:45:47.291Z,99.99
2018-03-11T04:46:47.268Z,99.99
2018-03-11T04:47:47.252Z,99.99
2018-03-11T04:48:47.235Z,99.99
2018-03-11T04:49:47.243Z,99.99
2018-03-11T04:50:47.207Z,99.99
2018-03-11T04:51:47.194Z,99.99
2018-03-11T04:52:47.208Z,99.99
2018-03-11T04:53:47.159Z,99.99
2018-03-11T04:54:47.143Z,99.99
2018-03-11T04:55:47.128Z,99.99
2018-03-11T04:56:47.114Z,99.99
2018-03-11T04:57:47.102Z,99.99
2018-03-11T04:58:47.102Z,99.99
2018-03-11T04:59:47.070Z,99.99
2018-03-11T05:00:47.054Z,99.99
2018-03-11T05:01:47.044Z,99.99
2018-03-11T05:02:47.024Z,99.99
2018-03-11T05:03:47.014Z,99.99
2018-03-11T05:04:47.018Z,99.99
2018-03-11T05:05:46.978Z,99.99
2018-03-11T05:06:46.962Z,99.99
2018-03-11T05:07:46.947Z,99.99
2018-03-11T05:08:46.946Z,99.99
2018-03-11T05:09:46.912Z,99.99
2018-03-11T05:10:46.903Z,99.99
2018-03-11T05:11:46.885Z,99.99
2018-03-11T05:12:46.888Z,99.99
2018-03-11T05:13:46.856Z,99.99
2018-03-11T05:14:46.880Z,99.99
2018-03-11T05:15:46.845Z,99.99
2018-03-11T05:16:46.811Z,99.99
2018-03-11T05:17:46.798Z,99.99
2018-03-11T05:18:46.778Z,99.99
2018-03-11T05:19:46.759Z,99.99
2018-03-11T05:20:46.760Z,99.99
2018-03-11T05:21:46.736Z,99.99
2018-03-11T05:22:46.725Z,99.99
2018-03-11T05:23:46.716Z,99.99
2018-03-11T05:24:46.686Z,99.99
2018-03-11T05:25:46.691Z,99.99
2018-03-11T05:26:46.667Z,99.99
2018-03-11T05:27:46.660Z,99.99
2018-03-11T05:28:46.624Z,99.99
2018-03-11T05:29:46.612Z,99.99
2018-03-11T05:30:46.596Z,99.99
2018-03-11T05:31:46.578Z,99.99
2018-03-11T05:32:46.581Z,99.99
2018-03-11T05:33:46.552Z,99.99
2018-03-11T05:34:46.534Z,99.99
2018-03-11T05:35:46.518Z,99.99
2018-03-11T05:36:46.504Z,99.84
2018-03-11T05:37:46.489Z,99.99
2018-03-11T05:38:49.944Z,99.99
2018-03-11T05:39:46.459Z,99.99
2018-03-11T05:40:46.445Z,99.99
2018-03-11T05:41:46.421Z,99.99
2018-03-11T05:42:46.414Z,99.99
2018-03-11T05:43:46.402Z,99.99
2018-03-11T05:44:46.378Z,99.99
2018-03-11T05:45:46.372Z,99.99
2018-03-11T05:46:46.349Z,99.99
2018-03-11T05:47:46.330Z,99.99
2018-03-11T05:48:46.336Z,99.89
2018-03-11T05:49:46.299Z,99.70
2018-03-11T05:50:46.289Z,99.99
2018-03-11T05:51:46.269Z,99.99
2018-03-11T05:52:46.262Z,99.80
2018-03-11T05:53:46.239Z,99.13
2018-03-11T05:54:46.432Z,99.04
2018-03-11T05:55:46.211Z,99.22
2018-03-11T05:56:46.207Z,99.41
2018-03-11T05:57:46.179Z,99.13
2018-03-11T05:58:46.165Z,99.32
2018-03-11T05:59:46.169Z,99.41
2018-03-11T06:00:46.136Z,99.13
2018-03-11T06:01:46.119Z,99.13
2018-03-11T06:02:46.101Z,99.13
2018-03-11T06:03:46.105Z,99.41
2018-03-11T06:04:46.422Z,99.22
2018-03-11T06:05:46.052Z,99.41
2018-03-11T06:06:46.042Z,99.41
2018-03-11T06:07:46.030Z,99.41
2018-03-11T06:08:46.013Z,98.94
2018-03-11T06:09:46.010Z,99.04
2018-03-11T06:10:46.426Z,99.32
2018-03-11T06:11:45.963Z,99.41
2018-03-11T06:12:45.945Z,99.13
2018-03-11T06:13:45.936Z,99.13
2018-03-11T06:14:45.923Z,99.22
2018-03-11T06:15:45.920Z,99.22
2018-03-11T06:16:45.905Z,99.32
2018-03-11T06:17:45.898Z,98.75
2018-03-11T06:18:45.862Z,99.13
2018-03-11T06:19:45.845Z,99.04
2018-03-11T06:20:45.830Z,99.41
2018-03-11T06:21:45.812Z,99.32
2018-03-11T06:22:45.825Z,99.32
2018-03-11T06:23:45.785Z,99.41
2018-03-11T06:24:45.760Z,99.32
2018-03-11T06:25:45.750Z,99.32
2018-03-11T06:26:45.768Z,99.22
2018-03-11T06:28:06.743Z,99.32
2018-03-11T06:28:45.705Z,99.13
2018-03-11T06:29:45.691Z,99.13
2018-03-11T06:30:45.675Z,99.13
2018-03-11T06:31:45.663Z,99.41
2018-03-11T06:32:45.651Z,99.51
2018-03-11T06:33:45.663Z,99.13
2018-03-11T06:34:45.630Z,99.32
2018-03-11T06:35:45.596Z,99.13
2018-03-11T06:36:45.584Z,99.32
2018-03-11T06:37:45.567Z,99.04
2018-03-11T06:38:45.553Z,98.94
2018-03-11T06:39:45.551Z,99.32
2018-03-11T06:40:45.521Z,99.32
2018-03-11T06:41:45.510Z,99.13
2018-03-11T06:42:45.486Z,98.65
2018-03-11T06:43:45.481Z,98.65
2018-03-11T06:44:45.493Z,99.37
2018-03-11T06:45:45.449Z,99.37
2018-03-11T06:46:45.434Z,98.61
2018-03-11T06:47:45.416Z,97.89
2018-03-11T06:48:45.401Z,96.89
2018-03-11T06:49:45.388Z,96.32
2018-03-11T06:50:45.386Z,97.27
2018-03-11T06:51:45.361Z,97.46
2018-03-11T06:52:45.340Z,97.85
2018-03-11T06:53:45.341Z,97.94
2018-03-11T06:54:45.326Z,97.66
2018-03-11T06:55:45.302Z,98.51
2018-03-11T06:56:45.309Z,98.13
2018-03-11T06:57:45.263Z,98.51
2018-03-11T06:58:45.258Z,98.42
2018-03-11T06:59:45.249Z,97.94
2018-03-11T07:00:45.220Z,98.51
2018-03-11T07:01:45.217Z,98.61
2018-03-11T07:02:45.207Z,98.61
2018-03-11T07:03:45.201Z,98.80
2018-03-11T07:04:45.166Z,98.42
2018-03-11T07:05:45.178Z,98.61
2018-03-11T07:06:45.166Z,98.70
2018-03-11T07:07:45.132Z,98.61
2018-03-11T07:08:45.102Z,98.70
2018-03-11T07:09:45.091Z,98.22
2018-03-11T07:10:45.078Z,98.22
2018-03-11T07:11:45.055Z,98.22
2018-03-11T07:12:45.055Z,98.22
2018-03-11T07:13:45.046Z,98.32
2018-03-11T07:14:45.013Z,98.51
2018-03-11T07:15:44.997Z,97.66
2018-03-11T07:16:44.974Z,98.13
2018-03-11T07:17:44.983Z,98.13
2018-03-11T07:18:44.954Z,97.85
2018-03-11T07:19:44.933Z,97.66
2018-03-11T07:20:44.921Z,97.37
2018-03-11T07:21:44.914Z,97.66
2018-03-11T07:22:44.908Z,97.27
2018-03-11T07:23:44.880Z,97.17
2018-03-11T07:24:44.859Z,97.27
2018-03-11T07:25:44.847Z,97.37
2018-03-11T07:26:44.830Z,96.98
2018-03-11T07:27:44.815Z,96.89
2018-03-11T07:28:44.816Z,97.51
2018-03-11T07:29:44.786Z,97.37
2018-03-11T07:30:44.784Z,96.89
2018-03-11T07:31:44.755Z,96.89
2018-03-11T07:32:44.740Z,97.46
2018-03-11T07:33:44.746Z,97.13
2018-03-11T07:34:44.713Z,97.27
2018-03-11T07:35:44.698Z,97.22
2018-03-11T07:36:44.685Z,97.08
2018-03-11T07:37:44.672Z,97.32
2018-03-11T07:38:44.661Z,97.42
2018-03-11T07:39:44.640Z,97.08
2018-03-11T07:40:44.620Z,97.37
2018-03-11T07:41:44.617Z,97.22
2018-03-11T07:42:44.592Z,97.13
2018-03-11T07:43:44.577Z,97.32
2018-03-11T07:44:44.576Z,97.13
2018-03-11T07:45:44.562Z,96.94
2018-03-11T07:46:44.534Z,97.22
2018-03-11T07:47:44.513Z,97.22
2018-03-11T07:48:44.507Z,97.22
2018-03-11T07:49:44.486Z,97.32
2018-03-11T07:50:44.490Z,97.13
2018-03-11T07:51:44.464Z,97.22
2018-03-11T07:52:44.444Z,97.32
2018-03-11T07:53:44.431Z,96.56
2018-03-11T07:54:44.410Z,96.46
2018-03-11T07:55:44.414Z,96.66
2018-03-11T07:56:44.384Z,96.56
2018-03-11T07:57:44.377Z,96.46
2018-03-11T07:58:44.368Z,96.56
2018-03-11T07:59:44.340Z,96.84
2018-03-11T08:00:44.352Z,96.46
2018-03-11T08:01:44.312Z,96.56
2018-03-11T08:02:44.296Z,96.37
2018-03-11T08:03:44.282Z,96.08
2018-03-11T08:04:44.266Z,96.37
2018-03-11T08:05:44.267Z,96.37
2018-03-11T08:06:44.251Z,96.08
2018-03-11T08:07:44.224Z,96.56
2018-03-11T08:08:44.214Z,96.17
2018-03-11T08:09:44.196Z,96.37
2018-03-11T08:10:44.196Z,96.27
2018-03-11T08:11:44.167Z,95.89
2018-03-11T08:12:44.148Z,95.89
2018-03-11T08:13:44.146Z,95.70
2018-03-11T08:14:44.119Z,95.70
2018-03-11T08:15:45.866Z,96.66
2018-03-11T08:16:44.088Z,96.46
2018-03-11T08:17:44.075Z,96.66
2018-03-11T08:18:44.807Z,96.75
2018-03-11T08:19:44.046Z,97.32
2018-03-11T08:20:44.030Z,97.13
2018-03-11T08:21:44.011Z,97.32
2018-03-11T08:22:43.998Z,98.18
2018-03-11T08:23:43.983Z,97.89
2018-03-11T08:24:43.992Z,98.47
2018-03-11T08:25:43.956Z,98.66
2018-03-11T08:26:43.940Z,98.18
2018-03-11T08:27:43.924Z,98.75
2018-03-11T08:28:43.958Z,98.08
2018-03-11T08:29:43.919Z,98.99
2018-03-11T08:30:43.883Z,98.61
2018-03-11T08:31:43.865Z,98.47
2018-03-11T08:32:43.850Z,98.51
2018-03-11T08:33:43.833Z,98.80
2018-03-11T08:34:43.834Z,98.66
2018-03-11T08:35:43.804Z,98.75
2018-03-11T08:36:43.791Z,98.27
2018-03-11T08:37:43.771Z,98.75
2018-03-11T08:38:43.759Z,98.37
2018-03-11T08:39:43.740Z,98.27
2018-03-11T08:40:43.967Z,97.80
2018-03-11T08:41:43.712Z,97.71
2018-03-11T08:42:43.698Z,98.18
2018-03-11T08:43:43.682Z,97.71
2018-03-11T08:44:43.664Z,97.51
2018-03-11T08:45:43.962Z,97.61
2018-03-11T08:46:43.635Z,97.32
2018-03-11T08:47:43.622Z,97.13
2018-03-11T08:48:43.601Z,97.32
2018-03-11T08:49:43.592Z,97.13
2018-03-11T08:50:43.599Z,97.32
2018-03-11T08:51:43.576Z,96.56
2018-03-11T08:52:43.556Z,96.84
2018-03-11T08:53:43.540Z,96.84
2018-03-11T08:54:43.515Z,96.66
2018-03-11T08:55:43.518Z,96.84
2018-03-11T08:56:43.484Z,96.84
2018-03-11T08:57:43.476Z,96.84
2018-03-11T08:58:43.459Z,96.56
2018-03-11T08:59:44.342Z,96.03
2018-03-11T09:00:43.460Z,95.75
2018-03-11T09:01:43.416Z,96.42
2018-03-11T09:02:43.397Z,96.03
2018-03-11T09:03:43.381Z,96.22
2018-03-11T09:04:48.113Z,96.22
2018-03-11T09:05:43.353Z,96.03
2018-03-11T09:06:43.352Z,95.56
2018-03-11T09:07:43.336Z,95.46
2018-03-11T09:08:43.328Z,95.46
2018-03-11T09:09:43.292Z,95.46
2018-03-11T09:10:43.278Z,95.46
2018-03-11T09:11:43.288Z,95.46
2018-03-11T09:12:43.243Z,95.36
2018-03-11T09:13:43.898Z,95.27
2018-03-11T09:14:43.219Z,95.36
2018-03-11T09:15:43.232Z,94.79
2018-03-11T09:16:43.191Z,94.98
2018-03-11T09:17:43.193Z,94.60
2018-03-11T09:18:43.168Z,94.79
2018-03-11T09:19:43.146Z,94.89
2018-03-11T09:21:43.139Z,94.70
2018-03-11T09:22:43.102Z,94.70
2018-03-11T09:23:43.090Z,94.79
2018-03-11T09:24:43.096Z,94.41
2018-03-11T09:25:43.060Z,94.41
2018-03-11T09:26:43.073Z,94.12
2018-03-11T09:27:43.491Z,94.12
2018-03-11T09:28:43.011Z,94.31
2018-03-11T09:29:43.002Z,93.84
2018-03-11T09:30:42.988Z,93.93
2018-03-11T09:31:42.975Z,93.93
2018-03-11T09:32:42.960Z,94.03
2018-03-11T09:33:42.959Z,93.36
2018-03-11T09:34:53.888Z,93.31
2018-03-11T09:35:42.932Z,93.79
2018-03-11T09:36:42.896Z,93.31
2018-03-11T09:37:42.893Z,93.12
2018-03-11T09:38:42.868Z,92.64
2018-03-11T09:39:42.871Z,92.45
2018-03-11T09:40:42.842Z,93.31
2018-03-11T09:41:42.830Z,92.64
2018-03-11T09:42:42.811Z,92.74
2018-03-11T09:43:42.800Z,92.83
2018-03-11T09:44:42.800Z,92.74
2018-03-11T09:45:42.768Z,91.97
2018-03-11T09:46:42.756Z,92.26
2018-03-11T09:47:42.742Z,91.88
2018-03-11T09:48:42.727Z,91.69
2018-03-11T09:49:42.713Z,92.16
2018-03-11T09:50:42.714Z,91.69
2018-03-11T09:51:42.685Z,91.88
2018-03-11T09:52:42.686Z,91.69
2018-03-11T09:53:42.660Z,91.93
2018-03-11T09:54:42.644Z,91.88
2018-03-11T09:55:42.630Z,91.74
2018-03-11T09:56:42.625Z,91.64
2018-03-11T09:57:42.628Z,91.35
2018-03-11T09:58:42.584Z,91.54
2018-03-11T09:59:42.570Z,90.83
2018-03-11T10:00:42.559Z,90.78
2018-03-11T10:01:42.543Z,90.97
2018-03-11T10:02:42.544Z,90.49
2018-03-11T10:03:42.516Z,90.49
2018-03-11T10:04:42.499Z,90.49
2018-03-11T10:05:42.489Z,90.49
2018-03-11T10:06:42.470Z,90.49
2018-03-11T10:07:42.461Z,90.68
2018-03-11T10:08:42.461Z,90.39
2018-03-11T10:09:42.442Z,90.11
2018-03-11T10:10:42.417Z,90.20
2018-03-11T10:11:42.409Z,90.49
2018-03-11T10:12:42.392Z,90.39
2018-03-11T10:13:42.479Z,90.49
2018-03-11T10:14:42.382Z,90.49
2018-03-11T10:15:42.357Z,90.30
2018-03-11T10:16:42.342Z,90.30
2018-03-11T10:17:42.319Z,90.39
2018-03-11T10:18:42.308Z,90.49
2018-03-11T10:19:42.290Z,90.20
2018-03-11T10:20:42.492Z,90.30
2018-03-11T10:21:42.265Z,90.11
2018-03-11T10:22:42.247Z,90.39
2018-03-11T10:23:42.240Z,89.92
2018-03-11T10:24:42.224Z,90.01
2018-03-11T10:25:42.234Z,89.58
2018-03-11T10:26:42.194Z,89.48
2018-03-11T10:27:42.192Z,90.11
2018-03-11T10:28:42.181Z,89.73
2018-03-11T10:29:42.155Z,89.20
2018-03-11T10:30:42.138Z,89.39
2018-03-11T10:31:42.141Z,89.39
2018-03-11T10:32:42.117Z,89.10
2018-03-11T10:33:42.099Z,89.77
2018-03-11T10:34:42.095Z,89.20
2018-03-11T10:35:42.103Z,89.10
2018-03-11T10:37:03.074Z,88.91
2018-03-11T10:37:42.047Z,89.39
2018-03-11T10:38:42.031Z,89.01
2018-03-11T10:39:42.017Z,88.53
2018-03-11T10:40:42.015Z,88.05
2018-03-11T10:41:42.019Z,87.86
2018-03-11T10:42:42.930Z,87.62
2018-03-11T10:43:41.959Z,87.71
2018-03-11T10:44:41.950Z,87.43
2018-03-11T10:45:41.937Z,87.04
2018-03-11T10:46:41.931Z,87.23
2018-03-11T10:47:41.924Z,86.94
2018-03-11T10:48:41.897Z,86.47
2018-03-11T10:49:41.878Z,87.23
2018-03-11T10:50:41.885Z,86.51
2018-03-11T10:51:41.890Z,87.23
2018-03-11T10:52:41.839Z,87.08
2018-03-11T10:53:41.852Z,87.04
2018-03-11T10:54:41.816Z,86.90
2018-03-11T10:55:41.815Z,87.27
2018-03-11T10:56:41.798Z,87.08
2018-03-11T10:57:41.776Z,86.70
2018-03-11T10:58:41.787Z,86.51
2018-03-11T10:59:41.751Z,87.18
2018-03-11T11:00:41.744Z,86.70
2018-03-11T11:01:41.734Z,86.70
2018-03-11T11:02:41.718Z,86.51
2018-03-11T11:03:41.726Z,87.08
2018-03-11T11:04:41.712Z,86.90
2018-03-11T11:05:41.700Z,87.18
2018-03-11T11:06:41.669Z,86.94
2018-03-11T11:07:41.653Z,86.55
2018-03-11T11:08:41.639Z,86.74
2018-03-11T11:09:41.644Z,86.27
2018-03-11T11:10:41.630Z,86.65
2018-03-11T11:11:41.613Z,86.46
2018-03-11T11:12:41.602Z,86.84
2018-03-11T11:13:41.579Z,86.27
2018-03-11T11:14:41.571Z,85.88
2018-03-11T11:15:41.582Z,85.88
2018-03-11T11:16:41.542Z,85.41
2018-03-11T11:17:41.538Z,85.41
2018-03-11T11:18:41.525Z,84.35
2018-03-11T11:19:41.534Z,84.35
2018-03-11T11:20:41.498Z,84.45
2018-03-11T11:21:41.488Z,84.06
2018-03-11T11:22:41.476Z,83.68
2018-03-11T11:23:41.463Z,83.68
2018-03-11T11:24:41.451Z,84.16
2018-03-11T11:25:41.482Z,84.45
2018-03-11T11:26:41.425Z,85.02
2018-03-11T11:27:41.413Z,84.26
2018-03-11T11:28:41.398Z,83.59
2018-03-11T11:29:41.394Z,83.87
2018-03-11T11:30:41.499Z,83.97
2018-03-11T11:31:41.372Z,83.59
2018-03-11T11:32:41.350Z,83.39
2018-03-11T11:33:41.345Z,83.78
2018-03-11T11:34:41.326Z,83.68
2018-03-11T11:35:41.343Z,83.68
2018-03-11T11:36:41.304Z,83.82
2018-03-11T11:37:41.311Z,83.68
2018-03-11T11:38:41.285Z,83.68
2018-03-11T11:39:41.273Z,84.20
2018-03-11T11:40:41.510Z,83.92
2018-03-11T11:41:41.249Z,83.15
2018-03-11T11:42:41.261Z,83.44
2018-03-11T11:43:41.247Z,83.59
2018-03-11T11:44:41.224Z,83.68
2018-03-11T11:45:41.229Z,84.11
2018-03-11T11:46:41.225Z,83.72
2018-03-11T11:47:41.176Z,83.53
2018-03-11T11:48:41.278Z,83.72
2018-03-11T11:49:41.176Z,83.82
2018-03-11T11:50:41.144Z,83.49
2018-03-11T11:51:41.126Z,83.53
2018-03-11T11:52:41.127Z,83.34
2018-03-11T11:53:41.102Z,83.15
2018-03-11T11:54:41.091Z,83.53
2018-03-11T11:55:41.081Z,83.63
2018-03-11T11:56:41.079Z,83.05
2018-03-11T11:57:41.069Z,82.76
2018-03-11T11:58:41.047Z,82.57
2018-03-11T11:59:41.029Z,82.67
2018-03-11T12:00:41.027Z,82.48
2018-03-11T12:01:41.008Z,82.67
2018-03-11T12:02:41.015Z,82.67
2018-03-11T12:03:40.986Z,82.48
2018-03-11T12:04:40.971Z,82.57
2018-03-11T12:05:40.960Z,81.90
2018-03-11T12:06:40.955Z,82.00
2018-03-11T12:07:40.955Z,81.90
2018-03-11T12:08:40.943Z,81.81
2018-03-11T12:09:40.912Z,82.19
2018-03-11T12:10:40.908Z,82.19
2018-03-11T12:11:40.891Z,82.09
2018-03-11T12:12:40.895Z,82.09
2018-03-11T12:13:40.871Z,82.09
2018-03-11T12:14:40.852Z,82.19
2018-03-11T12:15:40.846Z,82.48
2018-03-11T12:16:40.840Z,82.00
2018-03-11T12:17:40.821Z,82.57
2018-03-11T12:18:40.826Z,82.00
2018-03-11T12:19:40.811Z,81.81
2018-03-11T12:20:40.787Z,82.29
2018-03-11T12:21:40.773Z,81.81
2018-03-11T12:22:40.793Z,81.71
2018-03-11T12:23:40.770Z,81.52
2018-03-11T12:24:40.737Z,82.19
2018-03-11T12:25:40.735Z,81.33
2018-03-11T12:26:40.724Z,81.04
2018-03-11T12:27:40.714Z,82.00
2018-03-11T12:28:40.718Z,82.19
2018-03-11T12:29:40.687Z,82.29
2018-03-11T12:30:40.687Z,81.62
2018-03-11T12:31:40.671Z,82.09
2018-03-11T12:32:40.657Z,81.81
2018-03-11T12:33:40.663Z,81.81
2018-03-11T12:34:40.628Z,82.09
2018-03-11T12:35:40.619Z,82.29
2018-03-11T12:36:40.609Z,81.52
2018-03-11T12:37:40.591Z,81.90
2018-03-11T12:38:40.588Z,82.09
2018-03-11T12:39:40.589Z,81.81
2018-03-11T12:40:40.559Z,81.81
2018-03-11T12:41:40.549Z,82.19
2018-03-11T12:42:40.538Z,82.09
2018-03-11T12:43:40.531Z,81.23
2018-03-11T12:44:40.527Z,81.23
2018-03-11T12:45:40.509Z,81.13
2018-03-11T12:46:40.497Z,81.13
2018-03-11T12:47:40.484Z,81.23
2018-03-11T12:48:40.470Z,81.13
2018-03-11T12:49:40.462Z,81.04
2018-03-11T12:50:40.470Z,81.43
2018-03-11T12:51:40.436Z,81.04
2018-03-11T12:52:40.428Z,81.04
2018-03-11T12:53:40.416Z,81.43